| time (UTC) | temp C | wind direction | speed KPH | gust KPH | rain 1hr cm | rain 24hr cm | rain mn cm | humidity % | barometer mb |
| 20260905182034 | 15 | 330 | 11.3 | 0.0 | 0.00 | 0.00 | 0.00 | 58 | |
| 20260905172110 | 16 | 340 | 14.5 | 0.0 | 0.00 | 0.00 | 0.00 | 55 | |
| 20260905162435 | 17 | 300 | 14.5 | 0.0 | 0.00 | 0.00 | 0.00 | 55 | |
| 20260905151939 | 17 | 310 | 19.3 | 0.0 | 0.00 | 0.00 | 0.00 | 55 | |
| 20260905141908 | 17 | 290 | 22.5 | 0.0 | 0.00 | 0.00 | 0.00 | 55 | |
| 20260905132234 | 17 | 280 | 29.0 | 0.0 | 0.00 | 0.00 | 0.00 | 51 | |
| 20260905122117 | 17 | 280 | 29.0 | 0.0 | 0.00 | 0.00 | 0.00 | 55 | |
| 20260905112039 | 17 | 290 | 29.0 | 0.0 | 0.00 | 0.00 | 0.00 | 59 | |
| 20260905102455 | 16 | 270 | 32.2 | 0.0 | 0.00 | 0.00 | 0.00 | 67 | |
| 20260905092101 | 13 | 280 | 19.3 | 0.0 | 0.00 | 0.00 | 0.00 | 76 | |
| 20260905082053 | 12 | 280 | 25.7 | 0.0 | 0.00 | 0.00 | 0.00 | 87 | |
| 20260905072353 | 12 | 270 | 22.5 | 0.0 | 0.00 | 0.00 | 0.00 | 93 | |
| 20260905062053 | 11 | 270 | 25.7 | 0.0 | 0.00 | 0.00 | 0.00 | 93 | |
| 20260905052051 | 11 | 280 | 22.5 | 0.0 | 0.00 | 0.00 | 0.00 | 93 | |
| 20260905042454 | 12 | 290 | 14.5 | 0.0 | 0.00 | 0.00 | 0.00 | 93 | |
| 20260905032052 | 12 | 320 | 8.0 | 0.0 | 0.00 | 0.00 | 0.00 | 93 | |
| 20260905022052 | 13 | 330 | 11.3 | 0.0 | 0.00 | 0.00 | 0.00 | 87 | |
| 20260905012353 | 13 | 340 | 14.5 | 0.0 | 0.00 | 0.00 | 0.00 | 87 | |
| 20260905002107 | 16 | 360 | 29.0 | 46.7 | 0.00 | 0.00 | 0.00 | 77 | |
| 20260904232139 | 21 | 270 | 25.7 | 0.0 | 0.00 | 0.00 | 0.00 | 56 | |
| 20260904222524 | 20 | 250 | 19.3 | 0.0 | 0.00 | 0.00 | 0.00 | 60 | |
| 20260904212052 | 21 | 250 | 19.3 | 0.0 | 0.00 | 0.00 | 0.00 | 56 | |
| 20260904202050 | 20 | 250 | 19.3 | 0.0 | 0.00 | 0.00 | 0.00 | 60 | |
| 20260904192339 | 21 | 230 | 14.5 | 0.0 | 0.00 | 0.00 | 0.00 | 56 |